sensor_id;sensor_type;location;lat;lon;timestamp;pressure;altitude;pressure_sealevel;temperature;humidity
64460;BME280;50828;53.756;21.140;2023-04-19T00:04:24;100464.51;;;7.87;68.26
64460;BME280;50828;53.756;21.140;2023-04-19T00:09:32;100464.23;;;7.84;68.48
64460;BME280;50828;53.756;21.140;2023-04-19T00:14:40;100451.16;;;7.80;68.59
64460;BME280;50828;53.756;21.140;2023-04-19T00:19:47;100448.73;;;7.79;68.74
64460;BME280;50828;53.756;21.140;2023-04-19T00:24:55;100450.00;;;7.77;68.81
64460;BME280;50828;53.756;21.140;2023-04-19T00:30:04;100447.95;;;7.75;68.80
64460;BME280;50828;53.756;21.140;2023-04-19T00:35:11;100436.64;;;7.71;68.90
64460;BME280;50828;53.756;21.140;2023-04-19T00:40:19;100431.15;;;7.66;69.00
64460;BME280;50828;53.756;21.140;2023-04-19T00:45:27;100427.66;;;7.65;69.10
64460;BME280;50828;53.756;21.140;2023-04-19T00:50:34;100422.45;;;7.63;69.13
64460;BME280;50828;53.756;21.140;2023-04-19T00:55:43;100408.70;;;7.60;69.10
64460;BME280;50828;53.756;21.140;2023-04-19T01:00:51;100399.11;;;7.57;69.18
64460;BME280;50828;53.756;21.140;2023-04-19T01:05:58;100391.85;;;7.53;69.18
64460;BME280;50828;53.756;21.140;2023-04-19T01:11:06;100390.02;;;7.48;68.97
64460;BME280;50828;53.756;21.140;2023-04-19T01:16:14;100388.59;;;7.42;69.12
64460;BME280;50828;53.756;21.140;2023-04-19T01:21:22;100384.38;;;7.34;69.05
64460;BME280;50828;53.756;21.140;2023-04-19T01:26:30;100383.92;;;7.31;69.37
64460;BME280;50828;53.756;21.140;2023-04-19T01:31:39;100380.35;;;7.27;69.51
64460;BME280;50828;53.756;21.140;2023-04-19T01:36:47;100376.05;;;7.23;69.43
64460;BME280;50828;53.756;21.140;2023-04-19T01:41:55;100372.44;;;7.20;69.54
64460;BME280;50828;53.756;21.140;2023-04-19T01:47:02;100368.66;;;7.16;69.97
64460;BME280;50828;53.756;21.140;2023-04-19T01:52:10;100364.55;;;7.12;70.19
64460;BME280;50828;53.756;21.140;2023-04-19T01:57:18;100356.99;;;7.05;70.25
64460;BME280;50828;53.756;21.140;2023-04-19T02:02:25;100359.46;;;7.05;70.38
64460;BME280;50828;53.756;21.140;2023-04-19T02:07:33;100356.91;;;7.01;70.74
64460;BME280;50828;53.756;21.140;2023-04-19T02:12:42;100346.81;;;6.98;70.57
64460;BME280;50828;53.756;21.140;2023-04-19T02:17:50;100340.58;;;6.95;70.64
64460;BME280;50828;53.756;21.140;2023-04-19T02:22:58;100335.38;;;6.92;70.79
64460;BME280;50828;53.756;21.140;2023-04-19T02:28:06;100332.70;;;6.87;70.84
64460;BME280;50828;53.756;21.140;2023-04-19T02:33:13;100325.35;;;6.79;70.85
64460;BME280;50828;53.756;21.140;2023-04-19T02:38:21;100326.80;;;6.76;70.83
64460;BME280;50828;53.756;21.140;2023-04-19T02:43:31;100320.06;;;6.72;71.29
64460;BME280;50828;53.756;21.140;2023-04-19T02:48:39;100312.60;;;6.69;71.11
64460;BME280;50828;53.756;21.140;2023-04-19T02:53:46;100303.23;;;6.65;71.27
64460;BME280;50828;53.756;21.140;2023-04-19T02:58:55;100293.35;;;6.61;71.38
64460;BME280;50828;53.756;21.140;2023-04-19T03:04:03;100282.58;;;6.57;71.51
64460;BME280;50828;53.756;21.140;2023-04-19T03:09:12;100276.70;;;6.53;71.40
64460;BME280;50828;53.756;21.140;2023-04-19T03:14:19;100276.59;;;6.50;71.31
64460;BME280;50828;53.756;21.140;2023-04-19T03:19:27;100266.73;;;6.44;71.62
64460;BME280;50828;53.756;21.140;2023-04-19T03:24:35;100268.40;;;6.40;71.66
64460;BME280;50828;53.756;21.140;2023-04-19T03:29:54;100263.77;;;6.36;71.64
64460;BME280;50828;53.756;21.140;2023-04-19T03:35:03;100261.56;;;6.32;71.62
64460;BME280;50828;53.756;21.140;2023-04-19T03:40:12;100251.88;;;6.27;71.63
64460;BME280;50828;53.756;21.140;2023-04-19T03:45:20;100249.13;;;6.24;71.81
64460;BME280;50828;53.756;21.140;2023-04-19T03:50:29;100245.17;;;6.20;71.95
64460;BME280;50828;53.756;21.140;2023-04-19T03:55:37;100241.77;;;6.17;72.00
64460;BME280;50828;53.756;21.140;2023-04-19T04:00:45;100240.28;;;6.12;71.99
64460;BME280;50828;53.756;21.140;2023-04-19T04:05:53;100242.05;;;6.11;71.94
64460;BME280;50828;53.756;21.140;2023-04-19T04:11:01;100234.77;;;6.08;72.12
64460;BME280;50828;53.756;21.140;2023-04-19T04:16:08;100227.34;;;6.03;72.18
64460;BME280;50828;53.756;21.140;2023-04-19T04:21:17;100225.83;;;5.99;72.18
64460;BME280;50828;53.756;21.140;2023-04-19T04:26:25;100228.33;;;5.97;72.26
64460;BME280;50828;53.756;21.140;2023-04-19T04:32:01;100225.56;;;5.95;72.61
64460;BME280;50828;53.756;21.140;2023-04-19T04:37:14;100224.88;;;5.93;72.61
64460;BME280;50828;53.756;21.140;2023-04-19T04:42:23;100224.02;;;5.92;72.53
64460;BME280;50828;53.756;21.140;2023-04-19T04:47:33;100226.47;;;5.92;72.73
64460;BME280;50828;53.756;21.140;2023-04-19T04:52:42;100225.26;;;5.91;72.79
64460;BME280;50828;53.756;21.140;2023-04-19T04:58:03;100231.04;;;5.91;72.59
64460;BME280;50828;53.756;21.140;2023-04-19T05:03:22;100228.10;;;5.89;72.58
64460;BME280;50828;53.756;21.140;2023-04-19T05:08:34;100229.70;;;5.88;72.57
64460;BME280;50828;53.756;21.140;2023-04-19T05:13:53;100236.35;;;5.87;72.90
64460;BME280;50828;53.756;21.140;2023-04-19T05:19:01;100238.67;;;5.85;72.80
64460;BME280;50828;53.756;21.140;2023-04-19T05:24:11;100236.95;;;5.84;72.94
64460;BME280;50828;53.756;21.140;2023-04-19T05:29:20;100236.27;;;5.82;72.84
64460;BME280;50828;53.756;21.140;2023-04-19T05:34:31;100234.25;;;5.79;73.10
64460;BME280;50828;53.756;21.140;2023-04-19T05:39:39;100230.95;;;5.77;72.98
64460;BME280;50828;53.756;21.140;2023-04-19T05:44:49;100226.43;;;5.76;73.14
64460;BME280;50828;53.756;21.140;2023-04-19T05:49:57;100231.51;;;5.76;73.24
64460;BME280;50828;53.756;21.140;2023-04-19T05:55:10;100237.29;;;5.75;73.25
64460;BME280;50828;53.756;21.140;2023-04-19T06:00:21;100236.42;;;5.75;73.20
64460;BME280;50828;53.756;21.140;2023-04-19T06:05:34;100236.42;;;5.74;73.29
64460;BME280;50828;53.756;21.140;2023-04-19T06:10:42;100237.10;;;5.76;73.25
64460;BME280;50828;53.756;21.140;2023-04-19T06:16:01;100233.73;;;5.78;73.49
64460;BME280;50828;53.756;21.140;2023-04-19T06:21:10;100236.47;;;5.81;73.52
64460;BME280;50828;53.756;21.140;2023-04-19T06:26:18;100232.58;;;5.83;73.32
64460;BME280;50828;53.756;21.140;2023-04-19T06:31:26;100238.14;;;5.85;73.40
64460;BME280;50828;53.756;21.140;2023-04-19T06:36:34;100242.15;;;5.86;73.27
64460;BME280;50828;53.756;21.140;2023-04-19T06:41:43;100238.32;;;5.85;73.40
64460;BME280;50828;53.756;21.140;2023-04-19T06:46:55;100235.37;;;5.84;73.58
64460;BME280;50828;53.756;21.140;2023-04-19T06:52:01;100239.05;;;5.83;73.59
64460;BME280;50828;53.756;21.140;2023-04-19T06:57:09;100239.41;;;5.83;73.57
64460;BME280;50828;53.756;21.140;2023-04-19T07:02:18;100237.13;;;5.84;73.68
64460;BME280;50828;53.756;21.140;2023-04-19T07:07:27;100233.10;;;5.84;73.70
64460;BME280;50828;53.756;21.140;2023-04-19T07:12:35;100223.66;;;5.84;73.58
64460;BME280;50828;53.756;21.140;2023-04-19T07:17:43;100222.91;;;5.87;73.61
64460;BME280;50828;53.756;21.140;2023-04-19T07:22:52;100218.30;;;5.91;73.70
64460;BME280;50828;53.756;21.140;2023-04-19T07:28:00;100226.08;;;5.95;73.60
64460;BME280;50828;53.756;21.140;2023-04-19T07:33:09;100232.54;;;5.97;73.86
64460;BME280;50828;53.756;21.140;2023-04-19T07:38:16;100231.48;;;5.97;73.79
64460;BME280;50828;53.756;21.140;2023-04-19T07:43:24;100228.52;;;5.97;73.81
64460;BME280;50828;53.756;21.140;2023-04-19T07:48:31;100224.34;;;5.94;73.70
64460;BME280;50828;53.756;21.140;2023-04-19T07:53:40;100225.59;;;5.93;73.71
64460;BME280;50828;53.756;21.140;2023-04-19T07:58:48;100224.45;;;5.88;73.57
64460;BME280;50828;53.756;21.140;2023-04-19T08:04:12;100231.79;;;5.88;73.59
64460;BME280;50828;53.756;21.140;2023-04-19T08:09:22;100236.70;;;5.88;73.59
64460;BME280;50828;53.756;21.140;2023-04-19T08:14:30;100232.69;;;5.87;73.73
64460;BME280;50828;53.756;21.140;2023-04-19T08:19:52;100233.90;;;5.88;73.87
64460;BME280;50828;53.756;21.140;2023-04-19T08:24:59;100236.34;;;5.87;73.77
64460;BME280;50828;53.756;21.140;2023-04-19T08:30:09;100240.89;;;5.88;73.66
64460;BME280;50828;53.756;21.140;2023-04-19T08:35:17;100236.73;;;5.87;73.89
64460;BME280;50828;53.756;21.140;2023-04-19T08:40:24;100238.30;;;5.86;73.91
64460;BME280;50828;53.756;21.140;2023-04-19T08:45:32;100240.26;;;5.84;73.72
64460;BME280;50828;53.756;21.140;2023-04-19T08:50:42;100240.25;;;5.85;73.84
64460;BME280;50828;53.756;21.140;2023-04-19T08:56:08;100241.11;;;5.85;74.05
64460;BME280;50828;53.756;21.140;2023-04-19T09:01:32;100234.11;;;5.86;73.82
64460;BME280;50828;53.756;21.140;2023-04-19T09:06:41;100222.73;;;5.87;74.10
64460;BME280;50828;53.756;21.140;2023-04-19T09:11:49;100227.60;;;5.88;74.12
64460;BME280;50828;53.756;21.140;2023-04-19T09:17:12;100240.48;;;5.91;74.05
64460;BME280;50828;53.756;21.140;2023-04-19T09:22:23;100245.16;;;5.94;74.13
64460;BME280;50828;53.756;21.140;2023-04-19T09:27:32;100250.95;;;6.02;74.23
64460;BME280;50828;53.756;21.140;2023-04-19T09:32:49;100247.65;;;6.11;74.08
64460;BME280;50828;53.756;21.140;2023-04-19T09:38:01;100245.04;;;6.19;74.38
64460;BME280;50828;53.756;21.140;2023-04-19T09:43:11;100252.38;;;6.28;74.12
64460;BME280;50828;53.756;21.140;2023-04-19T09:48:38;100264.60;;;6.38;74.13
64460;BME280;50828;53.756;21.140;2023-04-19T09:53:46;100272.48;;;6.46;74.02
64460;BME280;50828;53.756;21.140;2023-04-19T09:58:54;100271.77;;;6.55;74.02
64460;BME280;50828;53.756;21.140;2023-04-19T10:04:17;100264.64;;;6.61;74.15
64460;BME280;50828;53.756;21.140;2023-04-19T10:09:42;100265.52;;;6.69;74.17
64460;BME280;50828;53.756;21.140;2023-04-19T10:14:55;100265.14;;;6.78;74.30
64460;BME280;50828;53.756;21.140;2023-04-19T10:20:05;100263.16;;;6.88;74.42
64460;BME280;50828;53.756;21.140;2023-04-19T10:25:15;100258.54;;;6.99;74.46
64460;BME280;50828;53.756;21.140;2023-04-19T10:30:23;100261.08;;;7.10;74.33
64460;BME280;50828;53.756;21.140;2023-04-19T10:35:37;100252.06;;;7.22;74.51
64460;BME280;50828;53.756;21.140;2023-04-19T10:41:00;100243.05;;;7.31;74.31
64460;BME280;50828;53.756;21.140;2023-04-19T10:46:12;100244.98;;;7.45;74.36
64460;BME280;50828;53.756;21.140;2023-04-19T10:51:21;100252.38;;;7.58;74.61
64460;BME280;50828;53.756;21.140;2023-04-19T10:56:58;100254.45;;;7.73;74.44
64460;BME280;50828;53.756;21.140;2023-04-19T11:02:27;100249.70;;;7.86;74.39
64460;BME280;50828;53.756;21.140;2023-04-19T11:07:41;100257.34;;;8.02;74.36
64460;BME280;50828;53.756;21.140;2023-04-19T11:12:49;100269.23;;;8.17;74.24
64460;BME280;50828;53.756;21.140;2023-04-19T11:17:58;100274.34;;;8.29;74.08
64460;BME280;50828;53.756;21.140;2023-04-19T11:23:20;100278.92;;;8.41;74.18
64460;BME280;50828;53.756;21.140;2023-04-19T11:28:27;100275.31;;;8.51;74.08
64460;BME280;50828;53.756;21.140;2023-04-19T11:33:36;100278.19;;;8.61;74.23
64460;BME280;50828;53.756;21.140;2023-04-19T11:38:47;100286.44;;;8.72;73.89
64460;BME280;50828;53.756;21.140;2023-04-19T11:43:55;100279.81;;;8.83;73.87
64460;BME280;50828;53.756;21.140;2023-04-19T11:49:02;100278.28;;;8.93;73.71
64460;BME280;50828;53.756;21.140;2023-04-19T11:54:14;100275.54;;;9.02;73.74
64460;BME280;50828;53.756;21.140;2023-04-19T11:59:23;100274.33;;;9.13;73.69
64460;BME280;50828;53.756;21.140;2023-04-19T12:04:30;100274.11;;;9.25;73.61
64460;BME280;50828;53.756;21.140;2023-04-19T12:09:39;100275.62;;;9.38;73.75
64460;BME280;50828;53.756;21.140;2023-04-19T12:14:54;100273.07;;;9.52;73.87
64460;BME280;50828;53.756;21.140;2023-04-19T12:20:02;100275.57;;;9.66;73.96
64460;BME280;50828;53.756;21.140;2023-04-19T12:25:10;100269.48;;;9.80;73.66
64460;BME280;50828;53.756;21.140;2023-04-19T12:30:18;100266.67;;;9.95;73.49
64460;BME280;50828;53.756;21.140;2023-04-19T12:35:26;100269.27;;;10.11;73.42
64460;BME280;50828;53.756;21.140;2023-04-19T12:40:34;100258.27;;;10.28;73.54
64460;BME280;50828;53.756;21.140;2023-04-19T12:45:42;100255.68;;;10.47;73.29
64460;BME280;50828;53.756;21.140;2023-04-19T12:50:49;100254.11;;;10.65;73.22
64460;BME280;50828;53.756;21.140;2023-04-19T12:55:57;100251.61;;;10.84;73.12
64460;BME280;50828;53.756;21.140;2023-04-19T13:01:04;100246.79;;;11.04;73.32
64460;BME280;50828;53.756;21.140;2023-04-19T13:06:12;100244.05;;;11.24;73.07
64460;BME280;50828;53.756;21.140;2023-04-19T13:11:21;100244.55;;;11.42;73.17
64460;BME280;50828;53.756;21.140;2023-04-19T13:16:29;100232.10;;;11.57;72.43
64460;BME280;50828;53.756;21.140;2023-04-19T13:21:36;100230.56;;;11.72;72.52
64460;BME280;50828;53.756;21.140;2023-04-19T13:26:44;100233.70;;;11.85;72.14
64460;BME280;50828;53.756;21.140;2023-04-19T13:31:52;100233.67;;;11.99;72.43
64460;BME280;50828;53.756;21.140;2023-04-19T13:37:00;100232.01;;;12.13;72.34
64460;BME280;50828;53.756;21.140;2023-04-19T13:42:07;100228.58;;;12.26;71.98
64460;BME280;50828;53.756;21.140;2023-04-19T13:47:15;100230.88;;;12.41;71.78
64460;BME280;50828;53.756;21.140;2023-04-19T13:52:22;100233.74;;;12.56;71.44
64460;BME280;50828;53.756;21.140;2023-04-19T13:57:30;100232.58;;;12.70;71.69
64460;BME280;50828;53.756;21.140;2023-04-19T14:02:37;100226.50;;;12.82;71.73
64460;BME280;50828;53.756;21.140;2023-04-19T14:07:45;100227.70;;;12.94;71.80
64460;BME280;50828;53.756;21.140;2023-04-19T14:12:53;100224.88;;;13.05;71.31
64460;BME280;50828;53.756;21.140;2023-04-19T14:18:01;100220.91;;;13.18;71.13
64460;BME280;50828;53.756;21.140;2023-04-19T14:23:09;100224.42;;;13.33;71.16
64460;BME280;50828;53.756;21.140;2023-04-19T14:28:16;100216.80;;;13.44;70.87
64460;BME280;50828;53.756;21.140;2023-04-19T14:33:23;100210.54;;;13.56;70.83
64460;BME280;50828;53.756;21.140;2023-04-19T14:38:31;100204.63;;;13.68;71.04
64460;BME280;50828;53.756;21.140;2023-04-19T14:43:40;100194.15;;;13.79;70.47
64460;BME280;50828;53.756;21.140;2023-04-19T14:48:47;100189.29;;;13.87;70.75
64460;BME280;50828;53.756;21.140;2023-04-19T14:53:55;100187.42;;;13.96;70.62
64460;BME280;50828;53.756;21.140;2023-04-19T14:59:03;100185.44;;;14.03;70.40
64460;BME280;50828;53.756;21.140;2023-04-19T15:04:11;100186.53;;;14.12;70.44
64460;BME280;50828;53.756;21.140;2023-04-19T15:09:19;100183.27;;;14.24;70.35
64460;BME280;50828;53.756;21.140;2023-04-19T15:14:26;100190.78;;;14.35;69.77
64460;BME280;50828;53.756;21.140;2023-04-19T15:19:34;100185.00;;;14.44;69.94
64460;BME280;50828;53.756;21.140;2023-04-19T15:24:41;100189.30;;;14.49;69.18
64460;BME280;50828;53.756;21.140;2023-04-19T15:29:49;100191.91;;;14.54;68.74
64460;BME280;50828;53.756;21.140;2023-04-19T15:34:56;100207.63;;;14.55;68.55
64460;BME280;50828;53.756;21.140;2023-04-19T15:40:05;100205.95;;;14.53;66.98
64460;BME280;50828;53.756;21.140;2023-04-19T15:45:14;100194.70;;;14.45;65.91
64460;BME280;50828;53.756;21.140;2023-04-19T15:50:22;100206.98;;;14.34;65.31
64460;BME280;50828;53.756;21.140;2023-04-19T15:55:30;100209.83;;;14.24;65.04
64460;BME280;50828;53.756;21.140;2023-04-19T16:00:38;100203.92;;;14.15;65.26
64460;BME280;50828;53.756;21.140;2023-04-19T16:05:45;100211.86;;;14.09;65.74
64460;BME280;50828;53.756;21.140;2023-04-19T16:10:56;100210.11;;;14.02;65.73
64460;BME280;50828;53.756;21.140;2023-04-19T16:16:04;100207.42;;;13.92;65.96
64460;BME280;50828;53.756;21.140;2023-04-19T16:21:12;100214.38;;;13.85;66.04
64460;BME280;50828;53.756;21.140;2023-04-19T16:26:20;100217.70;;;13.75;65.99
64460;BME280;50828;53.756;21.140;2023-04-19T16:31:27;100219.73;;;13.67;65.85
64460;BME280;50828;53.756;21.140;2023-04-19T16:36:35;100225.33;;;13.61;65.90
64460;BME280;50828;53.756;21.140;2023-04-19T16:41:42;100241.70;;;13.55;65.81
64460;BME280;50828;53.756;21.140;2023-04-19T16:46:50;100259.86;;;13.49;65.75
64460;BME280;50828;53.756;21.140;2023-04-19T16:51:57;100267.83;;;13.46;64.20
64460;BME280;50828;53.756;21.140;2023-04-19T16:57:05;100272.46;;;13.38;62.52
64460;BME280;50828;53.756;21.140;2023-04-19T17:02:12;100254.80;;;13.22;62.01
64460;BME280;50828;53.756;21.140;2023-04-19T17:07:22;100262.52;;;13.20;61.34
64460;BME280;50828;53.756;21.140;2023-04-19T17:12:29;100268.95;;;13.15;61.09
64460;BME280;50828;53.756;21.140;2023-04-19T17:17:37;100292.58;;;13.09;60.83
64460;BME280;50828;53.756;21.140;2023-04-19T17:22:44;100320.23;;;13.04;61.39
64460;BME280;50828;53.756;21.140;2023-04-19T17:27:53;100331.08;;;12.98;61.35
64460;BME280;50828;53.756;21.140;2023-04-19T17:33:00;100336.95;;;12.94;61.50
64460;BME280;50828;53.756;21.140;2023-04-19T17:38:08;100343.23;;;12.92;62.11
64460;BME280;50828;53.756;21.140;2023-04-19T17:43:16;100350.27;;;12.89;62.14
64460;BME280;50828;53.756;21.140;2023-04-19T17:48:24;100360.61;;;12.83;62.74
64460;BME280;50828;53.756;21.140;2023-04-19T17:53:32;100361.45;;;12.80;62.73
64460;BME280;50828;53.756;21.140;2023-04-19T17:58:40;100359.68;;;12.76;63.07
64460;BME280;50828;53.756;21.140;2023-04-19T18:03:47;100363.61;;;12.72;63.09
64460;BME280;50828;53.756;21.140;2023-04-19T18:08:55;100366.64;;;12.67;63.26
64460;BME280;50828;53.756;21.140;2023-04-19T18:14:03;100361.29;;;12.60;63.77
64460;BME280;50828;53.756;21.140;2023-04-19T18:19:10;100362.75;;;12.55;63.88
64460;BME280;50828;53.756;21.140;2023-04-19T18:24:18;100358.80;;;12.48;64.18
64460;BME280;50828;53.756;21.140;2023-04-19T18:29:26;100352.66;;;12.40;64.02
64460;BME280;50828;53.756;21.140;2023-04-19T18:34:33;100354.57;;;12.32;64.19
64460;BME280;50828;53.756;21.140;2023-04-19T18:39:41;100350.33;;;12.24;64.59
64460;BME280;50828;53.756;21.140;2023-04-19T18:44:48;100349.94;;;12.16;64.43
64460;BME280;50828;53.756;21.140;2023-04-19T18:49:59;100351.71;;;12.08;64.61
64460;BME280;50828;53.756;21.140;2023-04-19T18:55:11;100357.52;;;12.01;64.79
64460;BME280;50828;53.756;21.140;2023-04-19T19:00:18;100358.73;;;11.92;65.49
64460;BME280;50828;53.756;21.140;2023-04-19T19:05:27;100358.46;;;11.85;65.22
64460;BME280;50828;53.756;21.140;2023-04-19T19:10:35;100355.24;;;11.78;65.72
64460;BME280;50828;53.756;21.140;2023-04-19T19:16:05;100360.20;;;11.73;65.31
64460;BME280;50828;53.756;21.140;2023-04-19T19:21:12;100360.42;;;11.68;65.95
64460;BME280;50828;53.756;21.140;2023-04-19T19:26:20;100357.68;;;11.61;65.97
64460;BME280;50828;53.756;21.140;2023-04-19T19:31:27;100364.70;;;11.57;65.87
64460;BME280;50828;53.756;21.140;2023-04-19T19:36:35;100364.39;;;11.52;66.24
64460;BME280;50828;53.756;21.140;2023-04-19T19:41:44;100366.50;;;11.48;65.83
64460;BME280;50828;53.756;21.140;2023-04-19T19:46:54;100370.79;;;11.42;65.68
64460;BME280;50828;53.756;21.140;2023-04-19T19:52:02;100376.06;;;11.38;66.19
64460;BME280;50828;53.756;21.140;2023-04-19T19:57:10;100380.80;;;11.34;65.73
64460;BME280;50828;53.756;21.140;2023-04-19T20:02:37;100379.36;;;11.30;65.92
64460;BME280;50828;53.756;21.140;2023-04-19T20:08:10;100380.23;;;11.26;66.20
64460;BME280;50828;53.756;21.140;2023-04-19T20:13:18;100383.21;;;11.22;66.15
64460;BME280;50828;53.756;21.140;2023-04-19T20:18:26;100383.75;;;11.17;65.92
64460;BME280;50828;53.756;21.140;2023-04-19T20:23:36;100386.27;;;11.11;66.01
64460;BME280;50828;53.756;21.140;2023-04-19T20:28:43;100384.86;;;11.07;66.13
64460;BME280;50828;53.756;21.140;2023-04-19T20:33:51;100382.41;;;11.01;66.66
64460;BME280;50828;53.756;21.140;2023-04-19T20:38:58;100378.20;;;10.96;66.63
64460;BME280;50828;53.756;21.140;2023-04-19T20:44:11;100372.44;;;10.90;66.73
64460;BME280;50828;53.756;21.140;2023-04-19T20:49:18;100377.63;;;10.88;66.40
64460;BME280;50828;53.756;21.140;2023-04-19T20:54:26;100376.91;;;10.83;66.61
64460;BME280;50828;53.756;21.140;2023-04-19T20:59:33;100377.52;;;10.81;66.53
64460;BME280;50828;53.756;21.140;2023-04-19T21:04:40;100381.29;;;10.79;66.73
64460;BME280;50828;53.756;21.140;2023-04-19T21:09:48;100382.77;;;10.77;66.19
64460;BME280;50828;53.756;21.140;2023-04-19T21:14:55;100378.00;;;10.77;66.20
64460;BME280;50828;53.756;21.140;2023-04-19T21:20:03;100374.06;;;10.79;66.66
64460;BME280;50828;53.756;21.140;2023-04-19T21:25:17;100375.74;;;10.81;66.58
64460;BME280;50828;53.756;21.140;2023-04-19T21:30:24;100360.27;;;10.76;66.34
64460;BME280;50828;53.756;21.140;2023-04-19T21:35:34;100374.20;;;10.85;66.16
64460;BME280;50828;53.756;21.140;2023-04-19T21:40:42;100374.37;;;10.85;65.69
64460;BME280;50828;53.756;21.140;2023-04-19T21:45:51;100375.20;;;10.87;66.22
64460;BME280;50828;53.756;21.140;2023-04-19T21:50:59;100375.52;;;10.88;65.74
64460;BME280;50828;53.756;21.140;2023-04-19T21:56:08;100376.63;;;10.86;65.96
64460;BME280;50828;53.756;21.140;2023-04-19T22:01:16;100374.02;;;10.85;65.71
64460;BME280;50828;53.756;21.140;2023-04-19T22:06:23;100374.82;;;10.82;65.79
64460;BME280;50828;53.756;21.140;2023-04-19T22:11:32;100369.47;;;10.79;65.61
64460;BME280;50828;53.756;21.140;2023-04-19T22:16:40;100370.95;;;10.78;65.52
64460;BME280;50828;53.756;21.140;2023-04-19T22:21:48;100372.18;;;10.73;65.65
64460;BME280;50828;53.756;21.140;2023-04-19T22:26:56;100373.79;;;10.72;65.46
64460;BME280;50828;53.756;21.140;2023-04-19T22:32:04;100366.73;;;10.68;65.29
64460;BME280;50828;53.756;21.140;2023-04-19T22:37:12;100375.05;;;10.67;65.69
64460;BME280;50828;53.756;21.140;2023-04-19T22:42:20;100368.70;;;10.62;65.33
64460;BME280;50828;53.756;21.140;2023-04-19T22:47:28;100371.55;;;10.57;65.55
64460;BME280;50828;53.756;21.140;2023-04-19T22:52:36;100371.17;;;10.52;65.21
64460;BME280;50828;53.756;21.140;2023-04-19T22:57:43;100374.38;;;10.46;65.74
64460;BME280;50828;53.756;21.140;2023-04-19T23:02:51;100373.94;;;10.38;65.39
64460;BME280;50828;53.756;21.140;2023-04-19T23:07:59;100377.96;;;10.34;65.73
64460;BME280;50828;53.756;21.140;2023-04-19T23:13:08;100373.44;;;10.27;65.83
64460;BME280;50828;53.756;21.140;2023-04-19T23:18:16;100380.69;;;10.21;65.74
64460;BME280;50828;53.756;21.140;2023-04-19T23:23:23;100384.21;;;10.16;65.44
64460;BME280;50828;53.756;21.140;2023-04-19T23:28:31;100376.34;;;10.08;65.97
64460;BME280;50828;53.756;21.140;2023-04-19T23:33:38;100377.94;;;10.03;65.68
64460;BME280;50828;53.756;21.140;2023-04-19T23:38:46;100377.09;;;9.97;65.93
64460;BME280;50828;53.756;21.140;2023-04-19T23:43:54;100374.81;;;9.91;65.72
64460;BME280;50828;53.756;21.140;2023-04-19T23:49:01;100375.66;;;9.87;65.76
64460;BME280;50828;53.756;21.140;2023-04-19T23:54:08;100376.16;;;9.82;65.70
64460;BME280;50828;53.756;21.140;2023-04-19T23:59:16;100373.35;;;9.77;66.13
